Time;durP1;ratioP1;P1;durP2;ratioP2;P2;SDS_P1;SDS_P2;PMS_P1;PMS_P2;Temp;Humidity;BMP_temperature;BMP_pressure;BME280_temperature;BME280_humidity;BME280_pressure;Samples;Min_cycle;Max_cycle;Signal;HPM_P1;HPM_P2
2023/04/09 00:01:37;;;;;;;28.45;14.48;;;;;;;;;;5024626;28;20476;-53
2023/04/09 00:04:02;;;;;;;32.17;16.00;;;;;;;;;;5024706;28;20022;-50
2023/04/09 00:06:27;;;;;;;31.00;16.63;;;;;;;;;;5024295;28;20636;-52
2023/04/09 00:08:52;;;;;;;32.78;18.75;;;;;;;;;;5024203;28;20025;-54
2023/04/09 00:11:18;;;;;;;28.58;15.35;;;;;;;;;;5024363;28;20029;-54
2023/04/09 00:13:43;;;;;;;30.73;16.27;;;;;;;;;;5024528;28;20020;-51
2023/04/09 00:16:08;;;;;;;26.48;14.43;;;;;;;;;;5021786;28;20473;-51
2023/04/09 00:18:34;;;;;;;33.47;16.30;;;;;;;;;;5024307;28;20078;-53
2023/04/09 00:20:59;;;;;;;33.25;14.95;;;;;;;;;;5024177;28;20025;-49
2023/04/09 00:23:24;;;;;;;29.27;14.57;;;;;;;;;;5024378;28;20121;-51
2023/04/09 00:25:50;;;;;;;32.17;15.95;;;;;;;;;;5023790;28;20807;-52
2023/04/09 00:28:15;;;;;;;35.03;21.60;;;;;;;;;;5024037;28;20104;-53
2023/04/09 00:30:40;;;;;;;30.02;16.08;;;;;;;;;;5024063;28;20021;-52
2023/04/09 00:33:06;;;;;;;35.63;19.33;;;;;;;;;;5023905;28;20056;-55
2023/04/09 00:35:31;;;;;;;34.03;19.58;;;;;;;;;;5023493;28;20523;-51
2023/04/09 00:37:56;;;;;;;37.67;19.58;;;;;;;;;;5024207;28;20030;-54
2023/04/09 00:40:21;;;;;;;31.48;17.42;;;;;;;;;;5023689;28;20024;-56
2023/04/09 00:42:47;;;;;;;31.40;15.77;;;;;;;;;;5023716;28;20034;-54
2023/04/09 00:45:12;;;;;;;29.55;15.63;;;;;;;;;;5023792;28;20025;-53
2023/04/09 00:47:38;;;;;;;36.20;20.88;;;;;;;;;;5004672;28;20033;-55
2023/04/09 00:50:03;;;;;;;33.75;20.15;;;;;;;;;;5023755;28;20017;-55
2023/04/09 00:52:32;;;;;;;31.17;15.25;;;;;;;;;;5024046;28;20490;-56
2023/04/09 00:55:00;;;;;;;34.00;18.50;;;;;;;;;;5023701;28;20428;-53
2023/04/09 00:57:27;;;;;;;39.08;20.55;;;;;;;;;;5023639;28;20044;-50
2023/04/09 00:59:52;;;;;;;30.92;17.20;;;;;;;;;;5023954;28;20030;-54
2023/04/09 01:02:18;;;;;;;35.33;20.60;;;;;;;;;;5023471;28;20025;-57
2023/04/09 01:04:43;;;;;;;36.88;20.95;;;;;;;;;;5023768;28;20017;-53
2023/04/09 01:07:17;;;;;;;31.40;18.58;;;;;;;;;;5023939;28;20124;-54
2023/04/09 01:09:50;;;;;;;30.40;15.10;;;;;;;;;;5023667;28;20022;-57
2023/04/09 01:12:34;;;;;;;28.75;14.65;;;;;;;;;;5023349;28;20033;-56
2023/04/09 01:15:00;;;;;;;31.48;15.00;;;;;;;;;;5023335;28;20152;-56
2023/04/09 01:17:29;;;;;;;25.27;12.40;;;;;;;;;;5023181;28;20112;-55
2023/04/09 01:20:09;;;;;;;24.92;14.18;;;;;;;;;;5023141;28;20017;-51
2023/04/09 01:22:40;;;;;;;27.70;12.95;;;;;;;;;;5023387;28;20022;-53
2023/04/09 01:25:24;;;;;;;24.75;13.52;;;;;;;;;;5023269;28;20022;-53
2023/04/09 01:27:52;;;;;;;25.98;13.40;;;;;;;;;;5023533;28;20385;-50
2023/04/09 01:30:18;;;;;;;18.38;10.02;;;;;;;;;;5023926;28;20104;-54
2023/04/09 01:32:44;;;;;;;25.77;14.95;;;;;;;;;;5025963;28;20128;-56
2023/04/09 01:35:09;;;;;;;26.38;14.20;;;;;;;;;;5041198;28;20537;-54
2023/04/09 01:37:35;;;;;;;29.30;14.75;;;;;;;;;;5027279;28;20029;-53
2023/04/09 01:40:00;;;;;;;30.25;15.15;;;;;;;;;;5027033;28;20040;-52
2023/04/09 01:42:26;;;;;;;25.20;13.90;;;;;;;;;;5026922;28;20033;-54
2023/04/09 01:44:52;;;;;;;29.13;15.30;;;;;;;;;;5026687;28;20438;-54
2023/04/09 01:47:18;;;;;;;30.73;16.17;;;;;;;;;;5041165;28;20036;-55
2023/04/09 01:49:44;;;;;;;31.88;17.42;;;;;;;;;;5027009;28;20029;-54
2023/04/09 01:52:10;;;;;;;32.15;16.17;;;;;;;;;;5027258;28;20037;-50
2023/04/09 01:54:35;;;;;;;30.33;16.27;;;;;;;;;;5026894;28;20169;-57
2023/04/09 01:57:00;;;;;;;29.17;15.82;;;;;;;;;;5026810;28;20179;-51
2023/04/09 01:59:25;;;;;;;29.75;15.63;;;;;;;;;;5026959;28;20397;-51
2023/04/09 02:02:07;;;;;;;29.10;15.70;;;;;;;;;;5026735;28;20060;-54
2023/04/09 02:04:34;;;;;;;29.02;14.82;;;;;;;;;;5026820;28;20009;-52
2023/04/09 02:06:59;;;;;;;31.35;16.20;;;;;;;;;;5026619;28;20500;-54
2023/04/09 02:09:28;;;;;;;33.30;16.17;;;;;;;;;;5026323;28;20021;-55
2023/04/09 02:11:53;;;;;;;27.92;14.43;;;;;;;;;;5027183;28;20040;-57
2023/04/09 02:14:19;;;;;;;27.83;14.00;;;;;;;;;;5026535;28;20026;-56
2023/04/09 02:16:45;;;;;;;35.67;18.20;;;;;;;;;;5026265;28;20037;-52
2023/04/09 02:19:10;;;;;;;32.63;17.27;;;;;;;;;;5026570;28;20456;-52
2023/04/09 02:21:35;;;;;;;29.23;14.90;;;;;;;;;;5026193;28;20579;-53
2023/04/09 02:24:01;;;;;;;29.98;15.10;;;;;;;;;;5026482;28;20018;-55
2023/04/09 02:26:26;;;;;;;31.92;15.32;;;;;;;;;;5026375;28;20073;-53
2023/04/09 02:28:51;;;;;;;27.83;14.73;;;;;;;;;;5007186;28;20436;-52
2023/04/09 02:31:17;;;;;;;23.70;14.20;;;;;;;;;;5026083;28;20034;-57
2023/04/09 02:33:42;;;;;;;31.45;15.25;;;;;;;;;;5026252;28;20122;-52
2023/04/09 02:36:14;;;;;;;28.33;15.48;;;;;;;;;;5026074;28;20045;-55
2023/04/09 02:38:40;;;;;;;33.58;16.98;;;;;;;;;;5026453;28;20417;-52
2023/04/09 02:41:05;;;;;;;35.03;17.92;;;;;;;;;;5025852;28;20469;-56
2023/04/09 02:43:31;;;;;;;32.33;16.60;;;;;;;;;;5024764;28;20029;-54
2023/04/09 02:45:56;;;;;;;30.95;16.35;;;;;;;;;;5025836;28;20029;-57
2023/04/09 02:48:21;;;;;;;29.48;15.63;;;;;;;;;;5023434;28;20040;-57
2023/04/09 02:50:46;;;;;;;26.73;15.43;;;;;;;;;;5025932;28;20025;-53
2023/04/09 02:53:12;;;;;;;32.05;16.73;;;;;;;;;;5025573;28;20034;-57
2023/04/09 02:55:37;;;;;;;30.60;15.57;;;;;;;;;;5025827;28;20087;-52
2023/04/09 02:58:02;;;;;;;41.65;16.80;;;;;;;;;;5023515;28;20026;-55
2023/04/09 03:00:27;;;;;;;28.10;15.55;;;;;;;;;;5025600;28;20021;-55
2023/04/09 03:02:53;;;;;;;34.40;17.63;;;;;;;;;;5025777;28;20470;-57
2023/04/09 03:05:18;;;;;;;31.02;16.10;;;;;;;;;;5025562;28;20021;-50
2023/04/09 03:07:44;;;;;;;27.40;15.07;;;;;;;;;;5026031;28;20021;-54
2023/04/09 03:10:09;;;;;;;29.80;16.35;;;;;;;;;;5024370;28;20013;-57
2023/04/09 03:12:34;;;;;;;27.55;14.85;;;;;;;;;;5006590;28;20136;-54
2023/04/09 03:15:00;;;;;;;31.95;16.80;;;;;;;;;;5025724;28;20032;-57
2023/04/09 03:17:26;;;;;;;31.35;17.17;;;;;;;;;;5025522;28;20104;-56
2023/04/09 03:19:51;;;;;;;26.70;14.02;;;;;;;;;;5025583;28;20105;-57
2023/04/09 03:22:17;;;;;;;27.50;15.75;;;;;;;;;;5024913;28;20545;-55
2023/04/09 03:24:42;;;;;;;31.65;16.35;;;;;;;;;;5025284;28;20017;-57
2023/04/09 03:27:07;;;;;;;31.77;15.57;;;;;;;;;;5025452;28;20026;-54
2023/04/09 03:29:32;;;;;;;32.67;15.38;;;;;;;;;;5025106;28;20587;-53
2023/04/09 03:31:58;;;;;;;29.60;14.35;;;;;;;;;;5024852;28;20029;-56
2023/04/09 03:34:23;;;;;;;30.45;16.20;;;;;;;;;;5025164;28;20025;-55
2023/04/09 03:36:48;;;;;;;29.20;15.43;;;;;;;;;;5024505;28;20111;-51
2023/04/09 03:39:14;;;;;;;29.45;15.48;;;;;;;;;;5024908;28;20049;-56
2023/04/09 03:41:39;;;;;;;34.50;17.30;;;;;;;;;;5024828;28;20028;-55
2023/04/09 03:44:04;;;;;;;32.40;17.33;;;;;;;;;;5022853;28;20628;-56
2023/04/09 03:46:30;;;;;;;33.05;17.73;;;;;;;;;;5024831;28;20029;-56
2023/04/09 03:48:55;;;;;;;36.80;19.60;;;;;;;;;;5024852;28;20025;-54
2023/04/09 03:51:20;;;;;;;39.35;20.45;;;;;;;;;;5024958;28;20523;-53
2023/04/09 03:53:45;;;;;;;45.40;32.10;;;;;;;;;;5024890;28;20028;-54
2023/04/09 03:56:11;;;;;;;40.97;22.17;;;;;;;;;;5024886;28;20420;-57
2023/04/09 03:58:36;;;;;;;34.95;20.23;;;;;;;;;;5024942;28;20421;-53
2023/04/09 04:01:02;;;;;;;37.33;19.02;;;;;;;;;;5024843;28;20025;-54
2023/04/09 04:03:27;;;;;;;40.85;23.58;;;;;;;;;;5024430;28;20112;-54
2023/04/09 04:05:52;;;;;;;53.65;41.88;;;;;;;;;;5024560;28;20404;-51
2023/04/09 04:08:18;;;;;;;74.07;58.60;;;;;;;;;;5024574;28;20485;-55
2023/04/09 04:10:43;;;;;;;79.53;59.95;;;;;;;;;;5024825;28;20021;-57
2023/04/09 04:13:08;;;;;;;69.97;54.30;;;;;;;;;;5024465;28;20030;-51
2023/04/09 04:15:40;;;;;;;78.03;59.17;;;;;;;;;;5024280;28;20029;-55
2023/04/09 04:18:06;;;;;;;73.03;55.53;;;;;;;;;;5024421;28;20025;-55
2023/04/09 04:20:31;;;;;;;59.35;43.65;;;;;;;;;;5024167;28;20071;-52
2023/04/09 04:22:57;;;;;;;58.33;47.28;;;;;;;;;;5024094;28;20401;-55
2023/04/09 04:25:22;;;;;;;56.38;43.85;;;;;;;;;;5023889;28;20021;-50
2023/04/09 04:27:47;;;;;;;60.83;49.58;;;;;;;;;;5024372;28;20462;-53
2023/04/09 04:30:12;;;;;;;70.82;54.22;;;;;;;;;;5024385;28;20021;-55
2023/04/09 04:32:38;;;;;;;63.47;48.58;;;;;;;;;;5024059;28;20513;-56
2023/04/09 04:35:03;;;;;;;62.75;48.85;;;;;;;;;;5023677;28;20029;-54
2023/04/09 04:37:28;;;;;;;70.95;53.67;;;;;;;;;;5023842;28;20132;-53
2023/04/09 04:39:54;;;;;;;63.58;50.33;;;;;;;;;;5023800;28;20021;-56
2023/04/09 04:42:19;;;;;;;67.75;51.47;;;;;;;;;;5024436;28;20469;-57
2023/04/09 04:44:44;;;;;;;59.88;48.30;;;;;;;;;;5023800;28;20528;-51
2023/04/09 04:47:09;;;;;;;61.97;49.80;;;;;;;;;;5024182;28;20435;-52
2023/04/09 04:49:35;;;;;;;55.65;42.15;;;;;;;;;;5023939;28;20496;-57
2023/04/09 04:52:00;;;;;;;61.65;47.65;;;;;;;;;;5024005;28;20137;-51
2023/04/09 04:54:25;;;;;;;62.72;47.78;;;;;;;;;;5005019;28;20513;-52
2023/04/09 04:56:51;;;;;;;67.70;53.53;;;;;;;;;;5024061;28;20021;-54
2023/04/09 04:59:16;;;;;;;53.42;38.50;;;;;;;;;;5023973;28;20513;-54
2023/04/09 05:01:41;;;;;;;58.20;43.08;;;;;;;;;;5023923;28;20029;-54
2023/04/09 05:04:06;;;;;;;65.43;50.00;;;;;;;;;;5023603;28;20477;-54
2023/04/09 05:06:32;;;;;;;71.78;52.72;;;;;;;;;;5022812;28;20075;-57
2023/04/09 05:08:57;;;;;;;63.13;48.92;;;;;;;;;;5023883;28;20060;-55
2023/04/09 05:11:26;;;;;;;58.25;45.35;;;;;;;;;;5023179;28;20542;-56
2023/04/09 05:13:51;;;;;;;45.70;31.98;;;;;;;;;;5023408;28;20029;-53
2023/04/09 05:16:17;;;;;;;52.08;36.08;;;;;;;;;;5023501;28;20032;-56
2023/04/09 05:18:42;;;;;;;53.28;37.45;;;;;;;;;;5023187;28;20370;-55
2023/04/09 05:21:08;;;;;;;50.15;40.95;;;;;;;;;;5023627;28;20022;-57
2023/04/09 05:23:33;;;;;;;52.28;37.20;;;;;;;;;;5022022;28;20025;-57
2023/04/09 05:25:58;;;;;;;50.47;35.65;;;;;;;;;;5023688;28;20090;-56
2023/04/09 05:28:24;;;;;;;60.00;41.50;;;;;;;;;;5023618;28;20036;-55
2023/04/09 05:30:49;;;;;;;46.50;35.20;;;;;;;;;;5023148;28;20501;-54
2023/04/09 05:33:14;;;;;;;47.50;34.42;;;;;;;;;;5021785;28;20080;-53
2023/04/09 05:35:40;;;;;;;40.30;27.63;;;;;;;;;;5023178;28;20041;-53
2023/04/09 05:38:05;;;;;;;49.95;31.00;;;;;;;;;;5023231;28;20029;-57
2023/04/09 05:40:30;;;;;;;47.42;35.47;;;;;;;;;;5023713;28;20035;-54
2023/04/09 05:42:55;;;;;;;41.65;27.20;;;;;;;;;;5023070;28;20504;-55
2023/04/09 05:45:21;;;;;;;42.65;29.60;;;;;;;;;;5021813;28;20056;-54
2023/04/09 05:47:46;;;;;;;45.47;33.00;;;;;;;;;;5023423;28;20458;-53
2023/04/09 05:50:11;;;;;;;47.85;35.75;;;;;;;;;;5023587;28;20025;-53
2023/04/09 05:52:37;;;;;;;51.38;37.40;;;;;;;;;;5024047;28;20132;-55
2023/04/09 05:55:02;;;;;;;54.42;37.60;;;;;;;;;;5022807;28;20021;-57
2023/04/09 05:57:29;;;;;;;50.78;42.85;;;;;;;;;;5020908;28;20026;-54
2023/04/09 05:59:54;;;;;;;50.08;39.00;;;;;;;;;;5023419;28;20025;-54
2023/04/09 06:02:20;;;;;;;51.28;40.78;;;;;;;;;;5023538;28;20496;-54
2023/04/09 06:04:45;;;;;;;54.03;45.65;;;;;;;;;;5023142;28;20021;-55
2023/04/09 06:07:10;;;;;;;60.92;51.13;;;;;;;;;;5023114;28;20033;-50
2023/04/09 06:09:36;;;;;;;51.38;40.35;;;;;;;;;;5023034;28;20549;-53
2023/04/09 06:12:02;;;;;;;45.55;36.00;;;;;;;;;;5023224;28;20040;-57
2023/04/09 06:14:28;;;;;;;42.70;30.10;;;;;;;;;;5023057;28;20056;-57
2023/04/09 06:16:53;;;;;;;48.17;38.95;;;;;;;;;;5023178;28;20044;-54
2023/04/09 06:19:18;;;;;;;41.40;31.40;;;;;;;;;;5026549;28;20480;-52
2023/04/09 06:21:44;;;;;;;43.65;32.03;;;;;;;;;;5026502;28;20083;-56
2023/04/09 06:24:09;;;;;;;42.67;38.10;;;;;;;;;;5026372;28;20100;-55
2023/04/09 06:26:34;;;;;;;44.05;37.75;;;;;;;;;;5026858;28;20120;-56
2023/04/09 06:28:59;;;;;;;37.97;30.48;;;;;;;;;;5007318;28;20025;-53
2023/04/09 06:31:25;;;;;;;42.22;31.50;;;;;;;;;;5025018;28;20110;-54
2023/04/09 06:33:50;;;;;;;37.28;29.23;;;;;;;;;;5026237;28;20026;-52
2023/04/09 06:36:16;;;;;;;45.13;37.22;;;;;;;;;;5026206;28;20424;-54
2023/04/09 06:38:41;;;;;;;46.22;39.67;;;;;;;;;;5026097;28;20527;-53
2023/04/09 06:41:07;;;;;;;43.65;37.40;;;;;;;;;;5023590;28;20053;-50
2023/04/09 06:43:33;;;;;;;45.55;36.53;;;;;;;;;;5026329;28;20381;-57
2023/04/09 06:45:58;;;;;;;36.35;23.48;;;;;;;;;;5026316;28;20022;-54
2023/04/09 06:48:23;;;;;;;31.45;24.67;;;;;;;;;;5026311;28;20160;-53
2023/04/09 06:50:48;;;;;;;34.03;25.02;;;;;;;;;;5026133;28;20014;-52
2023/04/09 06:53:14;;;;;;;35.67;29.23;;;;;;;;;;5025773;28;20025;-54
2023/04/09 06:55:40;;;;;;;34.13;27.20;;;;;;;;;;5025989;28;20017;-56
2023/04/09 06:58:05;;;;;;;32.35;26.02;;;;;;;;;;5026106;28;20025;-57
2023/04/09 07:00:30;;;;;;;36.03;26.38;;;;;;;;;;5025697;28;20386;-51
2023/04/09 07:02:56;;;;;;;30.83;26.13;;;;;;;;;;5025882;28;20083;-57
2023/04/09 07:05:21;;;;;;;32.13;21.58;;;;;;;;;;5025660;28;20399;-52
2023/04/09 07:07:46;;;;;;;28.60;24.48;;;;;;;;;;5025876;28;20034;-53
2023/04/09 07:10:12;;;;;;;35.88;28.27;;;;;;;;;;5025530;28;20022;-56
2023/04/09 07:12:37;;;;;;;37.75;29.90;;;;;;;;;;5025610;28;20040;-54
2023/04/09 07:15:04;;;;;;;27.42;24.48;;;;;;;;;;5023033;28;20030;-53
2023/04/09 07:17:30;;;;;;;37.92;25.08;;;;;;;;;;5025653;28;20056;-51
2023/04/09 07:19:55;;;;;;;31.38;21.90;;;;;;;;;;5025491;28;20049;-53
2023/04/09 07:22:23;;;;;;;37.67;30.00;;;;;;;;;;5025342;28;20055;-54
2023/04/09 07:24:52;;;;;;;37.53;30.52;;;;;;;;;;5025323;28;20018;-55
2023/04/09 07:27:21;;;;;;;38.35;30.65;;;;;;;;;;5025362;28;20033;-49
2023/04/09 07:29:46;;;;;;;31.95;28.48;;;;;;;;;;5025091;28;20448;-57
2023/04/09 07:32:12;;;;;;;36.08;30.00;;;;;;;;;;5025372;28;20033;-55
2023/04/09 07:34:37;;;;;;;41.15;36.88;;;;;;;;;;5025294;28;20053;-54
2023/04/09 07:37:02;;;;;;;41.38;34.20;;;;;;;;;;5022866;28;20061;-51
2023/04/09 07:39:28;;;;;;;37.95;28.38;;;;;;;;;;5024905;28;20030;-55
2023/04/09 07:41:53;;;;;;;31.88;25.80;;;;;;;;;;5025409;28;20518;-54
2023/04/09 07:44:20;;;;;;;29.98;25.35;;;;;;;;;;5024952;28;20064;-53
2023/04/09 07:46:45;;;;;;;30.33;23.77;;;;;;;;;;5025119;28;20037;-54
2023/04/09 07:49:10;;;;;;;32.38;25.25;;;;;;;;;;5022333;28;20036;-53
2023/04/09 07:51:36;;;;;;;39.85;35.40;;;;;;;;;;5024962;28;20123;-56
2023/04/09 07:54:01;;;;;;;48.80;43.80;;;;;;;;;;5025029;28;20027;-56
2023/04/09 07:56:26;;;;;;;37.03;33.03;;;;;;;;;;5024981;28;20473;-54
2023/04/09 07:58:51;;;;;;;37.42;33.65;;;;;;;;;;5022048;28;20037;-51
2023/04/09 08:01:17;;;;;;;29.85;23.98;;;;;;;;;;5024517;28;20018;-56
2023/04/09 08:03:42;;;;;;;26.45;16.15;;;;;;;;;;5024831;28;20523;-57
2023/04/09 08:06:08;;;;;;;30.73;25.92;;;;;;;;;;5024735;28;20052;-53
2023/04/09 08:08:33;;;;;;;29.92;26.00;;;;;;;;;;5024918;28;20140;-53
2023/04/09 08:10:59;;;;;;;36.83;32.97;;;;;;;;;;5024958;28;20021;-56
2023/04/09 08:13:24;;;;;;;29.75;25.73;;;;;;;;;;5024515;28;20393;-57
2023/04/09 08:15:49;;;;;;;25.40;20.80;;;;;;;;;;5024385;28;20109;-54
2023/04/09 08:18:15;;;;;;;31.02;24.38;;;;;;;;;;5024571;28;20053;-57
2023/04/09 08:20:43;;;;;;;27.65;20.40;;;;;;;;;;5024149;28;20055;-58
2023/04/09 08:23:09;;;;;;;28.48;21.45;;;;;;;;;;5024319;28;20109;-57
2023/04/09 08:25:35;;;;;;;29.92;19.75;;;;;;;;;;5024314;28;20104;-55
2023/04/09 08:28:00;;;;;;;27.77;20.73;;;;;;;;;;5024417;28;20040;-54
2023/04/09 08:30:25;;;;;;;37.55;28.00;;;;;;;;;;5024637;28;20026;-51
2023/04/09 08:32:50;;;;;;;40.40;36.22;;;;;;;;;;5023829;28;20421;-48
2023/04/09 08:35:16;;;;;;;31.50;20.35;;;;;;;;;;5023883;28;20032;-55
2023/04/09 08:37:41;;;;;;;28.25;18.77;;;;;;;;;;5024414;28;20529;-57
2023/04/09 08:40:08;;;;;;;32.75;23.02;;;;;;;;;;5024334;28;20029;-53
2023/04/09 08:42:34;;;;;;;29.73;21.70;;;;;;;;;;5023331;28;20406;-58
2023/04/09 08:45:02;;;;;;;24.38;17.58;;;;;;;;;;5023974;28;20221;-55
2023/04/09 08:47:27;;;;;;;29.15;21.05;;;;;;;;;;5023707;28;20029;-51
2023/04/09 08:49:53;;;;;;;31.85;21.45;;;;;;;;;;5022321;28;20014;-56
2023/04/09 08:52:20;;;;;;;36.03;32.15;;;;;;;;;;5024415;28;20040;-58
2023/04/09 08:54:46;;;;;;;31.17;26.42;;;;;;;;;;5024158;28;20025;-57
2023/04/09 08:57:11;;;;;;;31.48;28.15;;;;;;;;;;5023977;28;20017;-57
2023/04/09 08:59:36;;;;;;;26.35;15.55;;;;;;;;;;5023710;28;20116;-54
2023/04/09 09:02:05;;;;;;;23.92;15.18;;;;;;;;;;5023943;28;20026;-56
2023/04/09 09:04:42;;;;;;;28.38;17.42;;;;;;;;;;5023839;28;20022;-52
2023/04/09 09:07:07;;;;;;;24.83;17.25;;;;;;;;;;5023644;28;20064;-55
2023/04/09 09:09:48;;;;;;;21.83;16.00;;;;;;;;;;5023801;28;20061;-56
2023/04/09 09:12:28;;;;;;;24.20;14.23;;;;;;;;;;5023482;28;20021;-55
2023/04/09 09:14:53;;;;;;;26.13;13.82;;;;;;;;;;5023477;28;20234;-57
2023/04/09 09:17:18;;;;;;;31.05;16.05;;;;;;;;;;5023767;28;20355;-53
2023/04/09 09:19:43;;;;;;;25.80;13.13;;;;;;;;;;5004446;28;20436;-55
2023/04/09 09:22:11;;;;;;;23.90;14.55;;;;;;;;;;5023398;28;20028;-56
2023/04/09 09:24:49;;;;;;;23.15;15.50;;;;;;;;;;5023778;28;20026;-50
2023/04/09 09:27:39;;;;;;;23.85;16.85;;;;;;;;;;5023589;28;20033;-56
2023/04/09 09:30:05;;;;;;;22.20;13.45;;;;;;;;;;4981878;28;20846;-52
2023/04/09 09:32:31;;;;;;;27.98;15.52;;;;;;;;;;4981268;28;20093;-49
2023/04/09 09:34:59;;;;;;;21.98;14.85;;;;;;;;;;4981459;28;20074;-53
2023/04/09 09:37:25;;;;;;;26.05;16.58;;;;;;;;;;4948376;28;20046;-52
2023/04/09 09:39:51;;;;;;;23.98;13.73;;;;;;;;;;4981423;28;20044;-53
2023/04/09 09:42:16;;;;;;;26.13;14.07;;;;;;;;;;4981323;28;20478;-57
2023/04/09 09:44:41;;;;;;;21.85;13.35;;;;;;;;;;4981454;28;20029;-53
2023/04/09 09:47:07;;;;;;;28.25;21.40;;;;;;;;;;4981303;28;20359;-55
2023/04/09 09:49:32;;;;;;;29.63;20.88;;;;;;;;;;4980981;28;20018;-54
2023/04/09 09:51:58;;;;;;;26.25;19.15;;;;;;;;;;4981201;28;20504;-54
2023/04/09 09:54:24;;;;;;;24.15;15.52;;;;;;;;;;4984505;28;20116;-56
2023/04/09 09:56:51;;;;;;;25.02;15.48;;;;;;;;;;4985045;28;20458;-54
2023/04/09 09:59:23;;;;;;;24.00;15.52;;;;;;;;;;4984805;28;20030;-51
2023/04/09 10:01:55;;;;;;;24.83;16.25;;;;;;;;;;4984777;28;20042;-58
2023/04/09 10:04:22;;;;;;;32.15;15.55;;;;;;;;;;4984918;28;20479;-55
2023/04/09 10:06:48;;;;;;;27.23;17.80;;;;;;;;;;4999864;28;20789;-55
2023/04/09 10:09:14;;;;;;;31.88;20.00;;;;;;;;;;5026770;28;20476;-55
2023/04/09 10:11:44;;;;;;;32.50;21.15;;;;;;;;;;5026923;28;20068;-54
2023/04/09 10:14:10;;;;;;;27.15;20.48;;;;;;;;;;5027336;28;20432;-57
2023/04/09 10:16:35;;;;;;;25.75;15.93;;;;;;;;;;5026704;28;20348;-57
2023/04/09 10:19:00;;;;;;;27.80;15.23;;;;;;;;;;5026499;28;20120;-54
2023/04/09 10:21:55;;;;;;;22.02;14.57;;;;;;;;;;5026543;28;20366;-56
2023/04/09 10:24:21;;;;;;;24.58;13.55;;;;;;;;;;4984447;28;20035;-56
2023/04/09 10:26:47;;;;;;;25.20;13.32;;;;;;;;;;4984438;28;20093;-58
2023/04/09 10:29:14;;;;;;;23.13;13.70;;;;;;;;;;4984425;28;20068;-54
2023/04/09 10:32:02;;;;;;;23.42;13.15;;;;;;;;;;4984334;28;20314;-57
2023/04/09 10:34:27;;;;;;;30.80;15.48;;;;;;;;;;4983878;28;20092;-55
2023/04/09 10:36:55;;;;;;;22.55;13.35;;;;;;;;;;4984195;28;20062;-53
2023/04/09 10:39:20;;;;;;;24.85;15.45;;;;;;;;;;4984184;28;20358;-56
2023/04/09 10:41:47;;;;;;;29.63;17.30;;;;;;;;;;4984570;28;20057;-53
2023/04/09 10:44:22;;;;;;;22.63;14.38;;;;;;;;;;4968321;28;20022;-57
2023/04/09 10:46:48;;;;;;;23.88;14.93;;;;;;;;;;4951642;28;20434;-55
2023/04/09 10:49:18;;;;;;;22.88;13.95;;;;;;;;;;4984246;28;20022;-54
2023/04/09 10:51:44;;;;;;;;;;;;;;;;;;4984621;28;20397;-58
2023/04/09 10:54:27;;;;;;;25.42;13.70;;;;;;;;;;4984040;28;20020;-57
2023/04/09 10:57:15;;;;;;;22.17;14.30;;;;;;;;;;4983933;28;20022;-56
2023/04/09 10:59:40;;;;;;;26.75;14.35;;;;;;;;;;4985930;28;20097;-50
2023/04/09 11:02:06;;;;;;;23.73;14.27;;;;;;;;;;5026192;28;20033;-51
2023/04/09 11:04:40;;;;;;;29.52;15.98;;;;;;;;;;5025121;28;20290;-55
2023/04/09 11:07:06;;;;;;;27.40;16.67;;;;;;;;;;5025853;28;20033;-55
2023/04/09 11:09:34;;;;;;;27.10;15.75;;;;;;;;;;5025764;28;20033;-56
2023/04/09 11:12:00;;;;;;;29.15;17.90;;;;;;;;;;5025771;28;20116;-58
2023/04/09 11:14:26;;;;;;;28.38;15.80;;;;;;;;;;5025619;28;20668;-55
2023/04/09 11:16:51;;;;;;;23.25;14.90;;;;;;;;;;5025881;28;20116;-57
2023/04/09 11:19:17;;;;;;;27.17;15.80;;;;;;;;;;5039960;28;20033;-53
2023/04/09 11:21:46;;;;;;;27.90;15.98;;;;;;;;;;5025490;28;20036;-51
2023/04/09 11:24:11;;;;;;;29.23;18.73;;;;;;;;;;5025682;28;20500;-58
2023/04/09 11:26:36;;;;;;;26.45;19.52;;;;;;;;;;5025860;28;20017;-54
2023/04/09 11:29:07;;;;;;;27.60;17.40;;;;;;;;;;5025486;28;20484;-57
2023/04/09 11:31:32;;;;;;;25.75;17.33;;;;;;;;;;5025155;28;20108;-57
2023/04/09 11:33:57;;;;;;;23.42;15.48;;;;;;;;;;5025623;28;20187;-54
2023/04/09 11:36:22;;;;;;;26.77;17.48;;;;;;;;;;5006154;28;20053;-54
2023/04/09 11:41:35;;;;;;;29.65;21.33;;;;;;;;;;5025563;28;20079;-55
2023/04/09 11:44:02;;;;;;;25.42;16.48;;;;;;;;;;5025254;28;20033;-58
2023/04/09 11:46:28;;;;;;;28.35;22.60;;;;;;;;;;5025324;28;20029;-57
2023/04/09 11:48:54;;;;;;;27.48;16.23;;;;;;;;;;5022990;28;20034;-56
2023/04/09 11:51:20;;;;;;;28.63;18.05;;;;;;;;;;5024889;28;20037;-56
2023/04/09 11:53:47;;;;;;;28.42;18.83;;;;;;;;;;5025216;28;20034;-53
2023/04/09 11:56:12;;;;;;;30.75;19.92;;;;;;;;;;5025023;28;20026;-58
2023/04/09 11:58:37;;;;;;;32.25;21.17;;;;;;;;;;5024958;28;20531;-51
2023/04/09 12:01:02;;;;;;;29.52;20.70;;;;;;;;;;5025235;28;20025;-54
2023/04/09 12:03:29;;;;;;;27.35;16.77;;;;;;;;;;5024959;28;20052;-57
2023/04/09 12:05:55;;;;;;;29.65;21.67;;;;;;;;;;5025100;28;20025;-57
2023/04/09 12:08:23;;;;;;;27.13;17.75;;;;;;;;;;5024893;28;20025;-58
2023/04/09 12:10:50;;;;;;;25.42;17.27;;;;;;;;;;5024805;28;20045;-57
2023/04/09 12:13:15;;;;;;;24.45;16.45;;;;;;;;;;5024968;28;20072;-55
2023/04/09 12:15:42;;;;;;;30.73;19.45;;;;;;;;;;5024759;28;20473;-52
2023/04/09 12:18:08;;;;;;;26.27;16.92;;;;;;;;;;5024791;28;20107;-58
2023/04/09 12:20:34;;;;;;;31.48;21.45;;;;;;;;;;5024709;28;20424;-58
2023/04/09 12:23:02;;;;;;;31.30;21.50;;;;;;;;;;5024490;28;20457;-54
2023/04/09 12:25:27;;;;;;;37.60;33.63;;;;;;;;;;5024326;28;20427;-58
2023/04/09 12:27:54;;;;;;;25.08;15.50;;;;;;;;;;5025010;28;20424;-55
2023/04/09 12:30:20;;;;;;;28.13;17.38;;;;;;;;;;5024564;28;20032;-54
2023/04/09 12:32:45;;;;;;;21.67;14.85;;;;;;;;;;5024203;28;20025;-56
2023/04/09 12:35:11;;;;;;;26.20;14.43;;;;;;;;;;5024245;28;20029;-53
2023/04/09 12:37:36;;;;;;;29.40;16.88;;;;;;;;;;5024481;28;20108;-57
2023/04/09 12:40:02;;;;;;;26.98;17.95;;;;;;;;;;5024901;28;20431;-54
2023/04/09 12:42:27;;;;;;;28.70;19.60;;;;;;;;;;5024489;28;20454;-53
2023/04/09 12:44:53;;;;;;;23.73;14.10;;;;;;;;;;5024394;28;20087;-57
2023/04/09 12:47:18;;;;;;;23.85;17.65;;;;;;;;;;5024105;28;20021;-58
2023/04/09 12:49:45;;;;;;;21.80;14.18;;;;;;;;;;5024202;28;20017;-50
2023/04/09 12:52:10;;;;;;;20.92;14.98;;;;;;;;;;5024299;28;20497;-56
2023/04/09 12:54:36;;;;;;;25.50;15.35;;;;;;;;;;5023881;28;20081;-55
2023/04/09 12:57:01;;;;;;;21.70;14.13;;;;;;;;;;5024104;28;20025;-55
2023/04/09 12:59:26;;;;;;;20.13;14.05;;;;;;;;;;5023713;28;20457;-53
2023/04/09 13:01:51;;;;;;;27.13;13.98;;;;;;;;;;5024019;28;20029;-53
2023/04/09 13:04:17;;;;;;;24.45;14.80;;;;;;;;;;5023880;28;20390;-57
2023/04/09 13:06:42;;;;;;;18.83;12.50;;;;;;;;;;5024008;28;20022;-58
2023/04/09 13:09:07;;;;;;;18.43;12.03;;;;;;;;;;5023737;28;20246;-55
2023/04/09 13:11:32;;;;;;;23.40;15.17;;;;;;;;;;5004909;28;20797;-51
2023/04/09 13:13:58;;;;;;;20.23;13.63;;;;;;;;;;5023513;28;20385;-56
2023/04/09 13:16:23;;;;;;;25.23;12.37;;;;;;;;;;5024070;28;20257;-57
2023/04/09 13:18:48;;;;;;;22.25;12.77;;;;;;;;;;5022650;28;20748;-55
2023/04/09 13:21:17;;;;;;;20.08;12.40;;;;;;;;;;5023703;28;20631;-54
2023/04/09 13:23:43;;;;;;;22.33;13.57;;;;;;;;;;5023997;28;20018;-57
2023/04/09 13:26:08;;;;;;;22.42;13.18;;;;;;;;;;5023748;28;20036;-56
2023/04/09 13:28:33;;;;;;;20.67;12.20;;;;;;;;;;5025692;28;20029;-58
2023/04/09 13:30:58;;;;;;;20.67;14.57;;;;;;;;;;5027965;28;20017;-53
2023/04/09 13:33:24;;;;;;;23.77;14.00;;;;;;;;;;5027597;28;20309;-56
2023/04/09 13:35:50;;;;;;;23.50;13.50;;;;;;;;;;5027675;28;20045;-56
2023/04/09 13:38:15;;;;;;;18.45;11.70;;;;;;;;;;5027754;28;20049;-56
2023/04/09 13:40:40;;;;;;;23.02;14.02;;;;;;;;;;5027600;28;20040;-58
2023/04/09 13:43:06;;;;;;;22.42;14.48;;;;;;;;;;5027494;28;20278;-55
2023/04/09 13:45:31;;;;;;;20.20;14.95;;;;;;;;;;5027523;28;20071;-57
2023/04/09 13:47:57;;;;;;;19.83;13.50;;;;;;;;;;5027747;28;20021;-58
2023/04/09 13:50:22;;;;;;;19.17;11.27;;;;;;;;;;5027684;28;20974;-57
2023/04/09 13:52:47;;;;;;;18.90;11.52;;;;;;;;;;5027215;28;20024;-50
2023/04/09 13:55:13;;;;;;;21.33;13.82;;;;;;;;;;5027071;28;20033;-53
2023/04/09 13:57:38;;;;;;;21.47;15.03;;;;;;;;;;5027242;28;20481;-57
2023/04/09 14:00:04;;;;;;;17.40;10.57;;;;;;;;;;5027017;28;20250;-57
2023/04/09 14:02:30;;;;;;;21.10;12.30;;;;;;;;;;5025675;28;20265;-50
2023/04/09 14:04:55;;;;;;;25.88;21.80;;;;;;;;;;5027072;28;20025;-57
2023/04/09 14:07:21;;;;;;;19.95;14.48;;;;;;;;;;5027157;28;20388;-55
2023/04/09 14:09:46;;;;;;;20.90;15.40;;;;;;;;;;5027152;28;20025;-57
2023/04/09 14:12:11;;;;;;;27.70;23.77;;;;;;;;;;5027115;28;20021;-54
2023/04/09 14:14:37;;;;;;;25.10;19.80;;;;;;;;;;5026584;28;20040;-57
2023/04/09 14:17:02;;;;;;;24.43;13.97;;;;;;;;;;5026986;28;20022;-57